Time;durP1;ratioP1;P1;durP2;ratioP2;P2;SDS_P1;SDS_P2;PMS_P1;PMS_P2;Temp;Humidity;BMP_temperature;BMP_pressure;BME280_temperature;BME280_humidity;BME280_pressure;Samples;Min_cycle;Max_cycle;Signal;HPM_P1;HPM_P2
2022/10/25 00:02:16;;;;;;;6.10;1.53;;;13.10;99.90;;;;;;5022718;28;20215;-80
2022/10/25 00:04:42;;;;;;;4.10;1.30;;;13.10;99.90;;;;;;5022001;28;20188;-79
2022/10/25 00:07:07;;;;;;;11.10;1.47;;;13.00;99.90;;;;;;5023270;28;20197;-80
2022/10/25 00:09:33;;;;;;;8.33;1.70;;;13.10;99.90;;;;;;5023438;28;20199;-80
2022/10/25 00:11:58;;;;;;;8.47;1.17;;;13.00;99.90;;;;;;5021164;28;20184;-80
2022/10/25 00:14:24;;;;;;;4.50;1.50;;;13.10;99.90;;;;;;5020904;28;20212;-80
2022/10/25 00:16:50;;;;;;;7.57;1.13;;;13.10;99.90;;;;;;5023577;28;20208;-80
2022/10/25 00:19:15;;;;;;;9.33;1.57;;;13.00;99.90;;;;;;5023722;28;20229;-81
2022/10/25 00:21:41;;;;;;;6.47;1.40;;;13.00;99.90;;;;;;5018988;28;20651;-80
2022/10/25 00:24:09;;;;;;;7.00;1.40;;;13.00;99.90;;;;;;5020659;28;20180;-81
2022/10/25 00:26:34;;;;;;;5.60;1.53;;;13.10;99.90;;;;;;5021490;28;20201;-80
2022/10/25 00:29:00;;;;;;;7.47;1.30;;;13.00;99.90;;;;;;5023590;28;20185;-80
2022/10/25 00:31:26;;;;;;;9.47;1.20;;;13.00;99.90;;;;;;5021473;28;20185;-80
2022/10/25 00:33:52;;;;;;;6.07;1.60;;;13.10;99.90;;;;;;5023639;28;20177;-80
2022/10/25 00:36:23;;;;;;;4.30;1.20;;;13.00;99.90;;;;;;5021292;28;20184;-80
2022/10/25 00:38:49;;;;;;;8.80;1.40;;;13.10;99.90;;;;;;5011031;28;20232;-79
2022/10/25 00:41:17;;;;;;;7.87;1.27;;;13.10;99.90;;;;;;5023329;28;20169;-80
2022/10/25 00:43:48;;;;;;;5.40;1.33;;;13.10;99.90;;;;;;5022882;28;20235;-80
2022/10/25 00:46:16;;;;;;;6.77;1.13;;;13.10;99.90;;;;;;5022149;28;20236;-80
2022/10/25 00:48:52;;;;;;;6.63;1.50;;;13.10;99.90;;;;;;5021805;28;20185;-80
2022/10/25 00:51:18;;;;;;;9.47;1.53;;;13.10;99.90;;;;;;5020486;28;20665;-80
2022/10/25 00:53:44;;;;;;;4.50;1.30;;;13.10;99.90;;;;;;5022040;28;20169;-80
2022/10/25 00:56:17;;;;;;;9.37;1.77;;;13.10;99.90;;;;;;5023321;28;20208;-80
2022/10/25 00:58:48;;;;;;;5.90;1.60;;;13.10;99.90;;;;;;5019230;28;20239;-80
2022/10/25 01:01:14;;;;;;;7.37;1.47;;;13.20;99.90;;;;;;5020736;28;20215;-81
2022/10/25 01:03:43;;;;;;;7.30;1.17;;;13.20;99.90;;;;;;5022608;28;20189;-79
2022/10/25 01:06:16;;;;;;;5.97;1.13;;;13.30;99.90;;;;;;5022314;28;20200;-80
2022/10/25 01:08:42;;;;;;;4.03;1.10;;;13.30;99.90;;;;;;5022467;28;20538;-81
2022/10/25 01:11:08;;;;;;;8.23;1.60;;;13.30;99.90;;;;;;5022787;28;20183;-78
2022/10/25 01:13:35;;;;;;;6.03;1.33;;;13.30;99.90;;;;;;5028881;28;20240;-80
2022/10/25 01:16:37;;;;;;;9.87;1.90;;;13.40;99.90;;;;;;5038957;28;20192;-80
2022/10/25 01:19:35;;;;;;;8.30;1.40;;;13.40;99.90;;;;;;5020369;28;20670;-79
2022/10/25 01:22:21;;;;;;;8.43;1.60;;;13.40;99.90;;;;;;5020021;28;20173;-80
2022/10/25 01:25:01;;;;;;;6.83;1.10;;;13.40;99.90;;;;;;5000839;28;20208;-81
2022/10/25 01:27:36;;;;;;;5.13;1.30;;;13.40;99.90;;;;;;5022576;28;20219;-80
2022/10/25 01:30:34;;;;;;;8.60;1.27;;;13.50;99.90;;;;;;5020984;28;20172;-79
2022/10/25 01:33:16;;;;;;;8.43;1.20;;;13.50;99.90;;;;;;5022001;28;20169;-80
2022/10/25 01:35:49;;;;;;;4.73;1.27;;;13.50;99.90;;;;;;5020187;28;20211;-80
2022/10/25 01:38:34;;;;;;;4.83;1.40;;;13.60;99.90;;;;;;5020546;28;20205;-81
2022/10/25 01:41:27;;;;;;;5.27;1.13;;;13.60;99.90;;;;;;5020650;28;20179;-80
2022/10/25 01:44:17;;;;;;;8.70;1.43;;;13.70;99.90;;;;;;5020407;28;20168;-80
2022/10/25 01:47:02;;;;;;;6.17;1.60;;;13.60;99.90;;;;;;5021164;28;20185;-80
2022/10/25 01:49:43;;;;;;;6.37;1.47;;;13.60;99.90;;;;;;5019650;28;20256;-80
2022/10/25 01:52:09;;;;;;;6.03;1.40;;;13.70;99.90;;;;;;5019358;28;20184;-80
2022/10/25 01:54:34;;;;;;;8.37;1.80;;;13.60;99.90;;;;;;5020618;28;20528;-80
2022/10/25 01:57:11;;;;;;;1.90;1.20;;;13.60;99.90;;;;;;5019915;28;20250;-80
2022/10/25 02:00:06;;;;;;;5.77;1.50;;;13.60;99.90;;;;;;5020403;28;20185;-80
2022/10/25 02:02:55;;;;;;;7.03;1.40;;;13.60;99.90;;;;;;5020599;28;20172;-80
2022/10/25 02:05:54;;;;;;;8.70;1.90;;;13.60;99.90;;;;;;5019821;28;20209;-80
2022/10/25 02:08:43;;;;;;;6.43;1.40;;;13.60;99.90;;;;;;5019056;28;20555;-80
2022/10/25 02:11:22;;;;;;;6.60;1.60;;;13.60;99.90;;;;;;5020856;28;20652;-80
2022/10/25 02:14:24;;;;;;;10.23;1.57;;;13.60;99.90;;;;;;5020881;28;20526;-80
2022/10/25 02:16:57;;;;;;;8.97;1.40;;;13.60;99.90;;;;;;5019747;28;20760;-78
2022/10/25 02:19:38;;;;;;;5.10;1.13;;;13.60;99.90;;;;;;5019016;28;20211;-80
2022/10/25 02:22:07;;;;;;;8.87;1.50;;;13.60;99.90;;;;;;5021276;28;20158;-80
2022/10/25 02:24:34;;;;;;;8.10;1.90;;;13.50;99.90;;;;;;5019783;28;20184;-80
2022/10/25 02:27:03;;;;;;;8.70;1.60;;;13.50;99.90;;;;;;5020093;28;20199;-80
2022/10/25 02:29:31;;;;;;;6.47;1.83;;;13.50;99.90;;;;;;5020566;28;20192;-79
2022/10/25 02:31:58;;;;;;;7.83;1.57;;;13.50;99.90;;;;;;5020830;28;20173;-80
2022/10/25 02:34:23;;;;;;;10.60;1.50;;;13.50;99.90;;;;;;5020390;28;20203;-80
2022/10/25 02:36:50;;;;;;;6.00;1.33;;;13.50;99.90;;;;;;5018012;28;20694;-80
2022/10/25 02:39:17;;;;;;;9.43;1.60;;;13.50;99.90;;;;;;5001718;28;20232;-80
2022/10/25 02:41:42;;;;;;;5.63;1.43;;;13.50;99.90;;;;;;5019171;28;20184;-80
2022/10/25 02:44:08;;;;;;;8.00;1.07;;;13.50;99.90;;;;;;5019800;28;20169;-80
2022/10/25 02:46:33;;;;;;;3.37;1.10;;;13.60;99.90;;;;;;5019227;28;20231;-80
2022/10/25 02:48:59;;;;;;;6.43;1.10;;;13.50;99.90;;;;;;5022835;28;20184;-81
2022/10/25 02:51:24;;;;;;;6.10;1.53;;;13.40;99.90;;;;;;5021338;28;20181;-80
2022/10/25 02:53:50;;;;;;;6.93;1.30;;;13.50;99.90;;;;;;5023681;28;20242;-80
2022/10/25 02:56:20;;;;;;;6.60;1.60;;;13.50;99.90;;;;;;5023527;28;20176;-80
2022/10/25 02:58:48;;;;;;;4.37;1.50;;;13.50;99.90;;;;;;5025153;28;20278;-80
2022/10/25 03:01:15;;;;;;;5.67;1.27;;;13.50;99.90;;;;;;5025625;28;20173;-81
2022/10/25 03:03:41;;;;;;;9.90;1.70;;;13.50;99.90;;;;;;5025131;28;20219;-79
2022/10/25 03:06:08;;;;;;;6.37;1.47;;;13.50;99.90;;;;;;5024907;28;20177;-79
2022/10/25 03:08:35;;;;;;;5.53;1.77;;;13.50;99.90;;;;;;5024378;28;20192;-81
2022/10/25 03:11:00;;;;;;;6.83;1.23;;;13.50;99.90;;;;;;5024455;28;20195;-80
2022/10/25 03:13:26;;;;;;;8.43;1.80;;;13.50;99.90;;;;;;5024511;28;20189;-80
2022/10/25 03:15:51;;;;;;;5.20;1.63;;;13.50;99.90;;;;;;5024299;28;20173;-80
2022/10/25 03:18:17;;;;;;;7.47;1.60;;;13.50;99.90;;;;;;5023118;28;20205;-80
2022/10/25 03:20:43;;;;;;;5.73;1.10;;;13.50;99.90;;;;;;5023459;28;20227;-80
2022/10/25 03:23:10;;;;;;;7.67;1.53;;;13.70;99.90;;;;;;5021204;28;20191;-80
2022/10/25 03:25:36;;;;;;;4.20;1.17;;;13.60;99.90;;;;;;5022848;28;20192;-80
2022/10/25 03:28:01;;;;;;;5.20;1.40;;;13.60;99.90;;;;;;5022089;28;20220;-80
2022/10/25 03:30:30;;;;;;;5.63;1.40;;;13.60;99.90;;;;;;5022152;28;20278;-80
2022/10/25 03:32:56;;;;;;;9.37;1.37;;;13.70;99.90;;;;;;5023012;28;20170;-80
2022/10/25 03:35:23;;;;;;;9.33;1.53;;;13.70;99.90;;;;;;5021349;28;20196;-80
2022/10/25 03:37:49;;;;;;;5.77;2.10;;;13.70;99.90;;;;;;5023420;28;20667;-80
2022/10/25 03:40:15;;;;;;;3.83;1.17;;;13.70;99.90;;;;;;5022851;28;20252;-79
2022/10/25 03:42:41;;;;;;;5.10;1.07;;;13.80;99.90;;;;;;5023107;28;20192;-79
2022/10/25 03:45:07;;;;;;;5.83;2.10;;;13.70;99.90;;;;;;5023004;28;20192;-79
2022/10/25 03:47:33;;;;;;;4.03;0.97;;;13.70;99.90;;;;;;5022421;28;20201;-80
2022/10/25 03:49:59;;;;;;;10.53;1.43;;;13.70;99.90;;;;;;5023440;28;20177;-79
2022/10/25 03:52:24;;;;;;;5.33;1.30;;;13.70;99.90;;;;;;5023229;28;20207;-80
2022/10/25 03:54:50;;;;;;;8.40;1.20;;;13.70;99.90;;;;;;5021422;28;20181;-80
2022/10/25 03:57:16;;;;;;;10.17;2.00;;;13.70;99.90;;;;;;5023252;28;20264;-80
2022/10/25 03:59:43;;;;;;;7.90;1.33;;;13.70;99.90;;;;;;5021311;28;20205;-80
2022/10/25 04:02:09;;;;;;;6.47;1.63;;;13.70;99.90;;;;;;5019341;28;20573;-79
2022/10/25 04:04:35;;;;;;;5.67;1.20;;;13.70;99.90;;;;;;5013040;28;20631;-80
2022/10/25 04:07:00;;;;;;;4.00;1.20;;;13.70;99.90;;;;;;5016791;28;20284;-80
2022/10/25 04:09:26;;;;;;;7.90;1.27;;;13.70;99.90;;;;;;5023295;28;20220;-80
2022/10/25 04:11:51;;;;;;;3.77;1.17;;;13.70;99.90;;;;;;5023450;28;20661;-80
2022/10/25 04:14:17;;;;;;;10.57;1.20;;;13.70;99.90;;;;;;5021145;28;20213;-80
2022/10/25 04:16:42;;;;;;;10.77;1.70;;;13.70;99.90;;;;;;5021896;28;20761;-79
2022/10/25 04:19:08;;;;;;;4.10;1.30;;;13.70;99.90;;;;;;5022451;28;20240;-80
2022/10/25 04:21:33;;;;;;;5.00;1.20;;;13.70;99.90;;;;;;5022372;28;20682;-79
2022/10/25 04:23:59;;;;;;;3.40;1.10;;;13.70;99.90;;;;;;5020470;28;20569;-76
2022/10/25 04:26:24;;;;;;;6.43;1.67;;;13.70;99.90;;;;;;5018261;28;20647;-77
2022/10/25 04:28:52;;;;;;;4.83;1.00;;;13.70;99.90;;;;;;5016886;28;20181;-78
2022/10/25 04:31:18;;;;;;;8.00;1.87;;;13.60;99.90;;;;;;5017880;28;20185;-78
2022/10/25 04:33:46;;;;;;;7.20;1.93;;;13.60;99.90;;;;;;5017946;28;20682;-78
2022/10/25 04:36:12;;;;;;;4.20;1.17;;;13.70;99.90;;;;;;5016164;28;20184;-77
2022/10/25 04:38:37;;;;;;;8.83;1.60;;;13.70;99.90;;;;;;5017533;28;20582;-78
2022/10/25 04:41:03;;;;;;;5.67;1.17;;;13.60;99.90;;;;;;5016044;28;20666;-78
2022/10/25 04:43:29;;;;;;;4.73;1.30;;;13.60;99.90;;;;;;5018565;28;20231;-78
2022/10/25 04:45:54;;;;;;;6.87;1.60;;;13.60;99.90;;;;;;5018147;28;20177;-77
2022/10/25 04:48:20;;;;;;;7.77;1.40;;;13.60;99.90;;;;;;5017701;28;20540;-78
2022/10/25 04:50:46;;;;;;;4.27;1.17;;;13.60;99.90;;;;;;5017564;28;20261;-78
2022/10/25 04:53:12;;;;;;;5.57;1.50;;;13.60;99.90;;;;;;5018265;28;20184;-78
2022/10/25 04:55:37;;;;;;;5.97;1.03;;;13.60;99.90;;;;;;5022895;28;20192;-78
2022/10/25 04:58:03;;;;;;;7.87;1.67;;;13.60;99.90;;;;;;5024979;28;20697;-77
2022/10/25 05:00:29;;;;;;;3.10;1.13;;;13.60;99.90;;;;;;5021668;28;20230;-78
2022/10/25 05:02:55;;;;;;;6.60;1.17;;;13.60;99.90;;;;;;5020963;28;20173;-77
2022/10/25 05:05:23;;;;;;;9.30;1.80;;;13.60;99.90;;;;;;5020163;28;20208;-78
2022/10/25 05:07:48;;;;;;;5.97;1.27;;;13.60;99.90;;;;;;5019763;28;20255;-78
2022/10/25 05:10:14;;;;;;;8.37;1.50;;;13.60;99.90;;;;;;5018226;28;20181;-76
2022/10/25 05:12:40;;;;;;;10.57;2.10;;;13.60;99.90;;;;;;5017344;28;20241;-77
2022/10/25 05:15:06;;;;;;;6.73;1.47;;;13.60;99.90;;;;;;5019718;28;20215;-77
2022/10/25 05:17:32;;;;;;;12.93;1.50;;;13.60;99.90;;;;;;5019544;28;20232;-78
2022/10/25 05:19:58;;;;;;;4.37;1.40;;;13.60;99.90;;;;;;5023594;28;20205;-79
2022/10/25 05:22:23;;;;;;;6.60;1.20;;;13.60;99.90;;;;;;5023266;28;20248;-78
2022/10/25 05:24:49;;;;;;;6.03;1.47;;;13.60;99.90;;;;;;5020874;28;20177;-78
2022/10/25 05:27:15;;;;;;;12.70;2.40;;;13.60;99.90;;;;;;5018928;28;20201;-78
2022/10/25 05:29:40;;;;;;;6.47;1.73;;;13.60;99.90;;;;;;5020249;28;20212;-78
2022/10/25 05:32:06;;;;;;;7.20;1.90;;;13.60;99.90;;;;;;5018989;28;20177;-78
2022/10/25 05:34:32;;;;;;;5.10;1.60;;;13.60;99.90;;;;;;5017139;28;20197;-78
2022/10/25 05:36:57;;;;;;;6.83;1.50;;;13.60;99.90;;;;;;5018779;28;20239;-78
2022/10/25 05:39:23;;;;;;;6.70;1.63;;;13.60;99.90;;;;;;5017466;28;20227;-78
2022/10/25 05:41:49;;;;;;;6.73;1.30;;;13.50;99.90;;;;;;5018514;28;20188;-78
2022/10/25 05:44:15;;;;;;;13.67;1.50;;;13.50;99.90;;;;;;5018302;28;20185;-78
2022/10/25 05:46:42;;;;;;;6.07;1.60;;;13.50;99.90;;;;;;5018678;28;20239;-78
2022/10/25 05:49:08;;;;;;;3.37;1.17;;;13.50;99.90;;;;;;5017904;28;20676;-79
2022/10/25 05:51:35;;;;;;;8.23;1.50;;;13.50;99.90;;;;;;5018602;28;20169;-79
2022/10/25 05:54:06;;;;;;;8.90;1.70;;;13.50;99.90;;;;;;5019084;28;20231;-78
2022/10/25 05:56:33;;;;;;;8.40;1.60;;;13.50;99.90;;;;;;5018753;28;20196;-78
2022/10/25 05:59:08;;;;;;;8.77;1.70;;;13.50;99.90;;;;;;5017569;28;20330;-78
2022/10/25 06:01:34;;;;;;;7.63;1.80;;;13.50;99.90;;;;;;5018677;28;20165;-78
2022/10/25 06:04:00;;;;;;;7.20;1.57;;;13.60;99.90;;;;;;5016151;28;20188;-78
2022/10/25 06:06:26;;;;;;;11.43;1.90;;;13.60;99.90;;;;;;5018590;28;20211;-79
2022/10/25 06:08:56;;;;;;;7.47;1.93;;;13.50;99.90;;;;;;5018425;28;20200;-79
2022/10/25 06:11:22;;;;;;;9.33;1.70;;;13.50;99.90;;;;;;5017679;28;20267;-78
2022/10/25 06:13:48;;;;;;;8.10;1.80;;;13.50;99.90;;;;;;5017541;28;20227;-79
2022/10/25 06:16:16;;;;;;;8.63;1.77;;;13.50;99.90;;;;;;5016956;28;20260;-79
2022/10/25 06:18:41;;;;;;;2.73;1.23;;;13.50;99.90;;;;;;5016441;28;20570;-78
2022/10/25 06:21:10;;;;;;;6.17;2.03;;;13.50;99.90;;;;;;5017129;28;20177;-78
2022/10/25 06:23:36;;;;;;;7.07;1.53;;;13.50;99.90;;;;;;5017082;28;20173;-78
2022/10/25 06:26:04;;;;;;;5.70;1.70;;;13.50;99.90;;;;;;5017299;28;20184;-78
2022/10/25 06:28:30;;;;;;;6.30;2.23;;;13.40;99.90;;;;;;5017449;28;20220;-78
2022/10/25 06:31:05;;;;;;;5.77;1.23;;;13.40;99.90;;;;;;5017520;28;20196;-79
2022/10/25 06:33:31;;;;;;;4.50;1.60;;;13.40;99.90;;;;;;5016278;28;20215;-78
2022/10/25 06:35:58;;;;;;;5.40;1.30;;;13.40;99.90;;;;;;5015820;28;20185;-78
2022/10/25 06:38:25;;;;;;;5.37;1.40;;;13.30;99.90;;;;;;5016948;28;20212;-79
2022/10/25 06:40:51;;;;;;;7.63;1.70;;;13.30;99.90;;;;;;5014322;28;20189;-78
2022/10/25 06:43:17;;;;;;;7.53;1.57;;;13.30;99.90;;;;;;5011406;28;20669;-78
2022/10/25 06:45:42;;;;;;;8.37;2.00;;;13.30;99.90;;;;;;4997344;28;20654;-78
2022/10/25 06:48:08;;;;;;;7.20;1.60;;;13.30;99.90;;;;;;4996731;28;20182;-78
2022/10/25 06:50:33;;;;;;;6.67;1.80;;;13.20;99.90;;;;;;5004226;28;20211;-79
2022/10/25 06:52:59;;;;;;;6.87;1.50;;;13.20;99.90;;;;;;5017128;28;20645;-78
2022/10/25 06:55:24;;;;;;;6.40;1.43;;;13.20;99.90;;;;;;5016359;28;20631;-78
2022/10/25 06:57:50;;;;;;;9.40;2.17;;;13.20;99.90;;;;;;5016088;28;20287;-79
2022/10/25 07:00:16;;;;;;;3.90;1.50;;;13.20;99.90;;;;;;5016228;28;20204;-78
2022/10/25 07:02:41;;;;;;;11.40;1.73;;;13.10;99.90;;;;;;5016302;28;20249;-78
2022/10/25 07:05:07;;;;;;;6.83;1.60;;;13.10;99.90;;;;;;5015554;28;20188;-78
2022/10/25 07:07:33;;;;;;;6.83;1.83;;;13.20;99.90;;;;;;5016111;28;20209;-78
2022/10/25 07:09:58;;;;;;;5.10;1.27;;;13.10;99.90;;;;;;5016683;28;20177;-78
2022/10/25 07:12:24;;;;;;;7.33;1.50;;;13.10;99.90;;;;;;5016107;28;20173;-78
2022/10/25 07:14:49;;;;;;;8.90;2.00;;;13.10;99.90;;;;;;5017535;28;20188;-79
2022/10/25 07:17:15;;;;;;;9.20;1.90;;;13.10;99.90;;;;;;5019836;28;20283;-79
2022/10/25 07:19:40;;;;;;;5.43;1.57;;;13.10;99.90;;;;;;5022809;28;20754;-79
2022/10/25 07:22:06;;;;;;;9.97;2.10;;;13.00;99.90;;;;;;5022891;28;20189;-78
2022/10/25 07:24:31;;;;;;;10.00;2.13;;;13.00;99.90;;;;;;5023998;28;20240;-79
2022/10/25 07:26:57;;;;;;;9.20;2.30;;;13.10;99.90;;;;;;5022422;28;20204;-79
2022/10/25 07:29:23;;;;;;;5.37;1.57;;;13.10;99.90;;;;;;5022877;28;20177;-79
2022/10/25 07:31:48;;;;;;;9.00;2.00;;;13.10;99.90;;;;;;5024713;28;20185;-79
2022/10/25 07:34:14;;;;;;;5.07;1.70;;;13.10;99.90;;;;;;5023842;28;20181;-79
2022/10/25 07:36:40;;;;;;;6.00;1.70;;;13.10;99.90;;;;;;5027613;28;20189;-79
2022/10/25 07:39:06;;;;;;;8.97;2.00;;;13.10;99.90;;;;;;5029037;28;20209;-79
2022/10/25 07:41:31;;;;;;;5.60;2.00;;;13.10;99.90;;;;;;5028909;28;20228;-80
2022/10/25 07:43:57;;;;;;;4.23;1.73;;;13.10;99.90;;;;;;5027544;28;20643;-78
2022/10/25 07:46:23;;;;;;;6.07;1.80;;;13.10;99.90;;;;;;5025915;28;20202;-79
2022/10/25 07:48:48;;;;;;;6.50;2.07;;;13.20;99.90;;;;;;5025993;28;20177;-79
2022/10/25 07:51:15;;;;;;;7.13;1.80;;;13.20;99.90;;;;;;5025890;28;20180;-79
2022/10/25 07:53:41;;;;;;;6.33;1.80;;;13.20;99.90;;;;;;5025485;28;20177;-79
2022/10/25 07:56:12;;;;;;;3.87;1.93;;;13.30;99.90;;;;;;5026037;28;20173;-79
2022/10/25 07:58:38;;;;;;;10.30;2.00;;;13.30;99.90;;;;;;5025670;28;20247;-78
2022/10/25 08:01:05;;;;;;;7.33;2.33;;;13.30;99.90;;;;;;5025166;28;20185;-78
2022/10/25 08:03:31;;;;;;;11.43;2.20;;;13.30;99.90;;;;;;5026288;28;20593;-79
2022/10/25 08:05:57;;;;;;;6.80;2.10;;;13.30;99.90;;;;;;5025046;28;20177;-79
2022/10/25 08:08:23;;;;;;;5.67;1.70;;;13.40;99.90;;;;;;5026631;28;20650;-79
2022/10/25 08:10:48;;;;;;;7.03;2.13;;;13.40;99.90;;;;;;5026734;28;20173;-79
2022/10/25 08:13:14;;;;;;;6.63;2.43;;;13.40;99.90;;;;;;5026707;28;20188;-81
2022/10/25 08:15:40;;;;;;;8.33;2.13;;;13.40;99.90;;;;;;5026425;28;20180;-78
2022/10/25 08:18:06;;;;;;;6.23;2.10;;;13.50;99.90;;;;;;5025348;28;20220;-79
2022/10/25 08:20:32;;;;;;;3.23;1.90;;;13.50;99.90;;;;;;5025772;28;20166;-79
2022/10/25 08:22:58;;;;;;;6.97;1.70;;;13.50;99.90;;;;;;5026387;28;20558;-79
2022/10/25 08:25:25;;;;;;;6.33;2.10;;;13.60;99.90;;;;;;5025921;28;20256;-79
2022/10/25 08:27:51;;;;;;;9.90;2.07;;;13.60;99.90;;;;;;5025489;28;20250;-79
2022/10/25 08:30:17;;;;;;;7.73;1.93;;;13.60;99.90;;;;;;5025963;28;20181;-79
2022/10/25 08:32:42;;;;;;;8.20;2.10;;;13.60;99.90;;;;;;5025911;28;20184;-78
2022/10/25 08:35:08;;;;;;;6.97;1.57;;;13.70;99.90;;;;;;5025043;28;20263;-78
2022/10/25 08:37:33;;;;;;;5.70;1.60;;;13.70;99.90;;;;;;5025472;28;20196;-79
2022/10/25 08:39:59;;;;;;;6.23;1.90;;;13.70;99.90;;;;;;5025052;28;20291;-79
2022/10/25 08:42:51;;;;;;;12.47;1.80;;;13.70;99.90;;;;;;5025729;28;20192;-79
2022/10/25 08:45:45;;;;;;;6.30;1.90;;;13.80;99.90;;;;;;5024976;28;20189;-79
2022/10/25 08:48:16;;;;;;;3.30;1.60;;;13.80;99.90;;;;;;5017948;28;20371;-78
2022/10/25 08:50:46;;;;;;;7.00;2.17;;;13.90;99.90;;;;;;5021087;28;20150;-78
2022/10/25 08:53:22;;;;;;;9.20;1.90;;;14.00;99.90;;;;;;5021037;28;20172;-79
2022/10/25 08:55:49;;;;;;;7.67;2.23;;;14.10;99.90;;;;;;5021091;28;20165;-79
2022/10/25 08:58:26;;;;;;;5.20;1.40;;;14.10;99.90;;;;;;5021596;28;20208;-79
2022/10/25 09:00:52;;;;;;;9.87;1.70;;;14.40;99.90;;;;;;5020960;28;20157;-79
2022/10/25 09:03:24;;;;;;;6.17;1.60;;;14.30;99.90;;;;;;5021376;28;20641;-78
2022/10/25 09:06:07;;;;;;;8.03;1.60;;;14.40;99.90;;;;;;5021592;28;20212;-78
2022/10/25 09:08:56;;;;;;;8.40;1.70;;;14.50;99.90;;;;;;5022306;28;20207;-79
2022/10/25 09:11:41;;;;;;;9.30;2.00;;;14.60;99.90;;;;;;5021967;28;20161;-78
2022/10/25 09:15:01;;;;;;;5.93;1.33;;;14.70;99.90;;;;;;5021783;28;20677;-79
2022/10/25 09:17:53;;;;;;;4.87;1.20;;;14.80;99.90;;;;;;4960702;29;20218;-79
2022/10/25 09:20:19;;;;;;;9.23;2.57;;;14.90;99.90;;;;;;5016801;28;20777;-79
2022/10/25 09:22:55;;;;;;;5.53;1.80;;;14.90;99.90;;;;;;5022596;28;20169;-79
2022/10/25 09:25:29;;;;;;;7.07;1.70;;;15.00;99.90;;;;;;5022020;28;20153;-77
2022/10/25 09:28:02;;;;;;;8.03;1.73;;;15.00;99.90;;;;;;5022654;28;20197;-79
2022/10/25 09:30:34;;;;;;;8.90;1.37;;;15.00;99.90;;;;;;5022011;28;20163;-79
2022/10/25 09:33:04;;;;;;;3.70;1.20;;;15.10;99.90;;;;;;5021615;28;20157;-79
2022/10/25 09:35:45;;;;;;;4.20;1.17;;;15.10;99.90;;;;;;5021403;28;20208;-78
2022/10/25 09:38:18;;;;;;;9.17;1.93;;;15.20;99.90;;;;;;5020559;28;20223;-79
2022/10/25 09:40:47;;;;;;;8.50;1.50;;;15.20;99.90;;;;;;5020626;28;20157;-79
2022/10/25 09:43:18;;;;;;;3.53;1.20;;;15.30;99.90;;;;;;5021777;28;20263;-79
2022/10/25 09:45:58;;;;;;;4.87;1.20;;;15.30;99.90;;;;;;5021142;28;20157;-78
2022/10/25 09:48:32;;;;;;;6.43;1.57;;;15.30;99.90;;;;;;5021582;28;20242;-79
2022/10/25 09:51:12;;;;;;;3.10;0.97;;;15.30;99.90;;;;;;5019025;28;20657;-80
2022/10/25 09:53:40;;;;;;;3.03;1.00;;;15.30;99.90;;;;;;5018912;28;20172;-79
2022/10/25 09:56:06;;;;;;;3.77;1.37;;;15.30;99.90;;;;;;5019550;28;20653;-78
2022/10/25 09:58:41;;;;;;;2.37;1.10;;;15.30;99.90;;;;;;5019071;28;20204;-79
2022/10/25 10:01:14;;;;;;;5.57;1.27;;;15.20;99.90;;;;;;5019577;28;20174;-79
2022/10/25 10:03:40;;;;;;;6.53;1.50;;;15.30;99.90;;;;;;5020877;28;20523;-79
2022/10/25 10:06:22;;;;;;;4.20;1.40;;;15.30;99.90;;;;;;5019755;28;20196;-79
2022/10/25 10:08:58;;;;;;;4.80;1.70;;;15.30;99.90;;;;;;5020519;28;20161;-80
2022/10/25 10:11:24;;;;;;;10.73;1.47;;;15.30;99.90;;;;;;5020962;28;20157;-80
2022/10/25 10:13:58;;;;;;;3.00;1.13;;;15.30;99.90;;;;;;5020174;28;20264;-80
2022/10/25 10:16:31;;;;;;;4.97;1.40;;;15.40;99.90;;;;;;5019134;28;20189;-80
2022/10/25 10:19:17;;;;;;;7.37;1.60;;;15.30;99.90;;;;;;5019489;28;20671;-79
2022/10/25 10:21:48;;;;;;;4.80;1.40;;;15.30;99.90;;;;;;5019519;28;20172;-79
2022/10/25 10:24:21;;;;;;;3.83;1.30;;;15.30;99.90;;;;;;5019236;28;20145;-80
2022/10/25 10:26:53;;;;;;;2.77;1.10;;;15.30;99.90;;;;;;5019741;28;20188;-80
2022/10/25 10:29:24;;;;;;;7.97;2.03;;;15.30;99.90;;;;;;5019866;28;20168;-80
2022/10/25 10:31:52;;;;;;;4.63;1.57;;;15.30;99.90;;;;;;5018020;28;20255;-80
2022/10/25 10:34:40;;;;;;;3.97;1.30;;;15.30;99.90;;;;;;5018838;28;20184;-80
2022/10/25 10:37:12;;;;;;;7.37;1.03;;;15.30;99.90;;;;;;5018787;28;20195;-80
2022/10/25 10:39:58;;;;;;;7.50;1.53;;;15.40;99.90;;;;;;5019897;28;20680;-80
2022/10/25 10:42:33;;;;;;;5.50;1.20;;;15.30;99.90;;;;;;5020643;28;20169;-80
2022/10/25 10:45:08;;;;;;;5.70;1.93;;;15.30;99.90;;;;;;5020288;28;20180;-79
2022/10/25 10:47:36;;;;;;;4.03;1.47;;;15.30;99.90;;;;;;5019294;28;20188;-80
2022/10/25 10:50:22;;;;;;;6.23;1.70;;;15.30;99.90;;;;;;5019764;28;20173;-79
2022/10/25 10:53:15;;;;;;;6.10;1.70;;;15.50;99.90;;;;;;5018396;28;20165;-79
2022/10/25 10:55:50;;;;;;;2.10;1.50;;;15.60;99.90;;;;;;5018918;28;20176;-79
2022/10/25 10:58:23;;;;;;;4.30;1.40;;;15.70;99.90;;;;;;5018347;28;20238;-80
2022/10/25 11:01:07;;;;;;;4.20;1.50;;;15.80;99.90;;;;;;5017457;28;20555;-79
2022/10/25 11:03:35;;;;;;;4.23;1.37;;;15.90;99.90;;;;;;5018636;28;20153;-80
2022/10/25 11:06:01;;;;;;;7.37;1.60;;;16.00;99.90;;;;;;5018659;28;20165;-79
2022/10/25 11:08:26;;;;;;;9.37;1.63;;;16.10;99.90;;;;;;5017344;28;20224;-79
2022/10/25 11:11:13;;;;;;;3.30;1.33;;;16.20;99.90;;;;;;5021923;28;20173;-79
2022/10/25 11:13:51;;;;;;;4.53;1.10;;;16.30;99.90;;;;;;5021679;28;20173;-78
2022/10/25 11:16:57;;;;;;;3.13;1.50;;;16.30;99.90;;;;;;5020642;28;20197;-79
2022/10/25 11:19:56;;;;;;;4.20;1.50;;;16.40;99.90;;;;;;5021800;28;20295;-80
2022/10/25 11:22:45;;;;;;;3.53;1.33;;;16.40;99.90;;;;;;5021057;28;20204;-79
2022/10/25 11:25:30;;;;;;;4.63;1.40;;;16.40;99.90;;;;;;5021217;28;20657;-78
2022/10/25 11:28:26;;;;;;;2.60;1.40;;;16.40;99.90;;;;;;5020363;28;20220;-78
2022/10/25 11:31:19;;;;;;;4.30;1.37;;;16.40;99.90;;;;;;5019412;28;20188;-80
2022/10/25 11:33:50;;;;;;;3.07;1.20;;;16.50;99.90;;;;;;5016634;28;20186;-81
2022/10/25 11:36:45;;;;;;;3.07;1.10;;;16.40;99.90;;;;;;5023890;28;20176;-81
2022/10/25 11:39:50;;;;;;;2.77;1.93;;;16.40;99.90;;;;;;5020954;28;20181;-80
2022/10/25 11:42:44;;;;;;;3.90;1.20;;;16.40;99.90;;;;;;5019790;28;20173;-80
2022/10/25 11:45:27;;;;;;;6.23;1.20;;;16.40;99.90;;;;;;5019983;28;20157;-80
2022/10/25 11:47:56;;;;;;;5.83;1.90;;;16.40;99.90;;;;;;5019382;28;20246;-80
2022/10/25 11:50:46;;;;;;;6.33;0.97;;;16.40;99.90;;;;;;5019429;28;20272;-80
2022/10/25 11:53:31;;;;;;;3.27;1.00;;;16.40;99.90;;;;;;5019514;28;20181;-80
2022/10/25 11:56:24;;;;;;;3.53;1.20;;;16.30;99.90;;;;;;5020631;28;20196;-80
2022/10/25 11:59:09;;;;;;;3.20;1.00;;;16.30;99.90;;;;;;5011777;28;20675;-81
2022/10/25 12:02:02;;;;;;;5.50;1.53;;;16.30;99.90;;;;;;5023158;28;20184;-80
2022/10/25 12:04:51;;;;;;;3.13;1.10;;;16.30;99.90;;;;;;5018855;28;20173;-80
2022/10/25 12:07:37;;;;;;;4.00;0.97;;;16.30;99.90;;;;;;5020725;28;20189;-80
2022/10/25 12:10:31;;;;;;;4.40;1.30;;;16.30;99.90;;;;;;5020508;28;20165;-80
2022/10/25 12:13:03;;;;;;;3.93;1.27;;;16.30;99.90;;;;;;5020070;28;20282;-81
2022/10/25 12:15:41;;;;;;;3.83;0.80;;;16.30;99.90;;;;;;5019805;28;20181;-80
2022/10/25 12:18:16;;;;;;;4.20;1.37;;;16.20;99.90;;;;;;5019743;28;20216;-80
2022/10/25 12:20:46;;;;;;;4.57;1.40;;;16.20;99.90;;;;;;5018354;28;20165;-80
2022/10/25 12:23:19;;;;;;;2.80;1.17;;;16.20;99.90;;;;;;5020245;28;20192;-80
2022/10/25 12:26:00;;;;;;;2.37;1.00;;;16.20;99.90;;;;;;5018757;28;20157;-80
2022/10/25 12:28:42;;;;;;;3.23;1.10;;;16.20;99.90;;;;;;5017964;28;20212;-80
2022/10/25 12:31:18;;;;;;;5.33;0.97;;;16.20;99.90;;;;;;5016870;28;20192;-80
2022/10/25 12:33:57;;;;;;;3.70;1.10;;;16.20;99.90;;;;;;5022902;28;20238;-80
2022/10/25 12:36:47;;;;;;;2.83;0.87;;;16.10;99.90;;;;;;5026618;28;20168;-80
2022/10/25 12:39:32;;;;;;;3.37;1.00;;;16.10;99.90;;;;;;5019236;28;20177;-80
2022/10/25 12:42:05;;;;;;;5.17;1.03;;;16.10;99.90;;;;;;5014132;28;20226;-80
2022/10/25 12:45:04;;;;;;;3.43;1.00;;;16.20;99.90;;;;;;5038520;28;20167;-80
2022/10/25 12:47:57;;;;;;;2.97;1.00;;;16.30;99.90;;;;;;5036101;28;20674;-80
2022/10/25 12:51:02;;;;;;;3.23;1.00;;;16.30;99.90;;;;;;5039392;28;20156;-77
2022/10/25 12:53:47;;;;;;;5.40;1.03;;;16.50;99.90;;;;;;5010832;28;20196;-80
2022/10/25 12:56:16;;;;;;;5.33;0.80;;;16.70;99.90;;;;;;5037857;28;20263;-80
2022/10/25 12:59:18;;;;;;;3.53;1.20;;;16.90;99.90;;;;;;5039644;28;20215;-79
2022/10/25 13:02:21;;;;;;;4.60;1.27;;;16.90;99.90;;;;;;5012343;28;20187;-80
2022/10/25 13:05:06;;;;;;;10.90;1.23;;;16.90;99.90;;;;;;5026498;28;20244;-80
2022/10/25 13:07:33;;;;;;;4.20;1.03;;;16.90;99.90;;;;;;5016475;28;20271;-79
2022/10/25 13:10:24;;;;;;;3.43;0.80;;;16.90;99.90;;;;;;5020018;28;20173;-80
2022/10/25 13:13:03;;;;;;;2.03;0.80;;;16.80;99.90;;;;;;5015137;28;20189;-79